createdAt,value
2023-02-11T00:00:57.384Z,17.87
2023-02-11T00:03:24.755Z,20.53
2023-02-11T00:05:59.211Z,19.57
2023-02-11T00:08:26.695Z,17.47
2023-02-11T00:10:54.269Z,24.70
2023-02-11T00:13:23.424Z,19.27
2023-02-11T00:15:50.965Z,17.93
2023-02-11T00:18:18.476Z,18.30
2023-02-11T00:20:45.726Z,19.63
2023-02-11T00:23:13.067Z,16.00
2023-02-11T00:25:40.971Z,13.80
2023-02-11T00:28:08.244Z,17.50
2023-02-11T00:30:37.256Z,19.17
2023-02-11T00:33:04.986Z,25.13
2023-02-11T00:35:33.005Z,30.57
2023-02-11T00:38:01.035Z,19.13
2023-02-11T00:40:28.346Z,19.40
2023-02-11T00:42:55.639Z,18.97
2023-02-11T00:45:38.876Z,19.90
2023-02-11T00:48:06.168Z,18.83
2023-02-11T00:50:33.377Z,15.47
2023-02-11T00:53:00.780Z,17.00
2023-02-11T00:55:51.909Z,16.90
2023-02-11T00:58:51.598Z,18.47
2023-02-11T01:01:20.376Z,17.83
2023-02-11T01:03:47.634Z,14.33
2023-02-11T01:06:15.166Z,19.53
2023-02-11T01:08:42.433Z,15.00
2023-02-11T01:11:12.893Z,20.13
2023-02-11T01:13:40.334Z,12.13
2023-02-11T01:16:08.331Z,16.00
2023-02-11T01:18:37.347Z,13.40
2023-02-11T01:21:04.800Z,19.83
2023-02-11T01:23:32.070Z,11.90
2023-02-11T01:25:59.429Z,12.10
2023-02-11T01:28:30.237Z,14.37
2023-02-11T01:31:00.540Z,18.27
2023-02-11T01:33:27.863Z,16.10
2023-02-11T01:35:56.914Z,18.17
2023-02-11T01:38:26.041Z,12.00
2023-02-11T01:40:55.187Z,16.00
2023-02-11T01:43:23.714Z,18.87
2023-02-11T01:46:03.537Z,18.17
2023-02-11T01:48:32.544Z,21.17
2023-02-11T01:51:02.464Z,16.53
2023-02-11T01:53:30.198Z,16.97
2023-02-11T01:55:57.935Z,16.70
2023-02-11T01:58:25.378Z,15.87
2023-02-11T02:00:52.638Z,17.10
2023-02-11T02:03:20.651Z,19.73
2023-02-11T02:05:49.615Z,17.57
2023-02-11T02:08:20.118Z,14.80
2023-02-11T02:10:49.381Z,19.10
2023-02-11T02:13:17.067Z,16.97
2023-02-11T02:15:48.961Z,17.50
2023-02-11T02:18:23.590Z,19.47
2023-02-11T02:21:05.578Z,16.70
2023-02-11T02:23:40.423Z,15.50
2023-02-11T02:26:27.617Z,16.07
2023-02-11T02:29:15.813Z,19.80
2023-02-11T02:31:51.489Z,14.83
2023-02-11T02:34:25.285Z,16.80
2023-02-11T02:36:55.195Z,22.10
2023-02-11T02:39:25.260Z,15.60
2023-02-11T02:41:53.626Z,19.37
2023-02-11T02:44:21.014Z,18.23
2023-02-11T02:46:48.341Z,16.67
2023-02-11T02:49:16.650Z,12.30
2023-02-11T02:51:53.449Z,21.37
2023-02-11T02:54:29.168Z,21.60
2023-02-11T02:57:00.601Z,23.50
2023-02-11T02:59:35.135Z,17.17
2023-02-11T03:02:05.949Z,22.07
2023-02-11T03:04:36.941Z,19.57
2023-02-11T03:07:10.155Z,20.97
2023-02-11T03:09:39.757Z,19.67
2023-02-11T03:12:08.052Z,21.87
2023-02-11T03:14:36.469Z,21.70
2023-02-11T03:17:05.881Z,16.40
2023-02-11T03:19:35.835Z,25.77
2023-02-11T03:22:03.755Z,17.20
2023-02-11T03:24:33.894Z,18.10
2023-02-11T03:27:04.399Z,25.50
2023-02-11T03:29:34.872Z,15.87
2023-02-11T03:32:04.531Z,15.67
2023-02-11T03:34:34.258Z,14.87
2023-02-11T03:37:04.106Z,16.67
2023-02-11T03:39:35.755Z,19.77
2023-02-11T03:42:03.694Z,16.53
2023-02-11T03:44:33.702Z,17.27
2023-02-11T03:47:01.985Z,21.63
2023-02-11T03:49:29.572Z,18.27
2023-02-11T03:51:57.360Z,15.60
2023-02-11T03:54:27.351Z,16.03
2023-02-11T03:56:57.346Z,21.10
2023-02-11T03:59:24.589Z,23.63
2023-02-11T04:01:52.011Z,17.70
2023-02-11T04:04:19.252Z,19.10
2023-02-11T04:06:46.535Z,20.20
2023-02-11T04:09:13.894Z,23.23
2023-02-11T04:11:41.139Z,20.73
2023-02-11T04:14:09.778Z,18.57
2023-02-11T04:16:37.139Z,20.80
2023-02-11T04:19:04.462Z,22.17
2023-02-11T04:21:31.840Z,21.13
2023-02-11T04:23:59.102Z,20.03
2023-02-11T04:26:26.444Z,15.73
2023-02-11T04:28:53.656Z,23.57
2023-02-11T04:31:22.372Z,22.43
2023-02-11T04:33:49.810Z,24.27
2023-02-11T04:36:17.058Z,20.23
2023-02-11T04:38:44.295Z,21.27
2023-02-11T04:41:11.496Z,19.27
2023-02-11T04:43:38.758Z,18.43
2023-02-11T04:46:06.241Z,19.37
2023-02-11T04:48:34.907Z,23.10
2023-02-11T04:51:02.262Z,27.43
2023-02-11T04:53:29.494Z,23.63
2023-02-11T04:55:56.715Z,18.90
2023-02-11T04:58:23.967Z,17.73
2023-02-11T05:00:51.168Z,24.07
2023-02-11T05:03:18.423Z,17.17
2023-02-11T05:05:52.569Z,18.83
2023-02-11T05:08:20.483Z,22.17
2023-02-11T05:10:47.946Z,19.07
2023-02-11T05:13:15.212Z,28.50
2023-02-11T05:15:42.492Z,28.27
2023-02-11T05:18:09.732Z,21.40
2023-02-11T05:20:38.385Z,27.17
2023-02-11T05:23:07.188Z,25.67
2023-02-11T05:25:34.464Z,20.47
2023-02-11T05:28:01.832Z,25.87
2023-02-11T05:30:29.187Z,24.10
2023-02-11T05:32:56.675Z,20.17
2023-02-11T05:35:24.580Z,28.13
2023-02-11T05:37:51.903Z,23.47
2023-02-11T05:40:20.623Z,27.20
2023-02-11T05:42:47.899Z,27.37
2023-02-11T05:45:15.181Z,23.07
2023-02-11T05:47:42.518Z,25.00
2023-02-11T05:50:10.121Z,22.23
2023-02-11T05:52:37.386Z,25.43
2023-02-11T05:55:05.328Z,24.53
2023-02-11T05:57:33.928Z,27.30
2023-02-11T06:00:01.113Z,20.67
2023-02-11T06:02:28.460Z,23.90
2023-02-11T06:04:55.917Z,22.97
2023-02-11T06:07:23.091Z,27.20
2023-02-11T06:09:50.363Z,28.83
2023-02-11T06:12:17.568Z,22.20
2023-02-11T06:14:46.182Z,23.90
2023-02-11T06:17:15.600Z,26.40
2023-02-11T06:19:43.166Z,25.20
2023-02-11T06:22:10.712Z,29.10
2023-02-11T06:24:59.797Z,19.97
2023-02-11T06:27:25.420Z,22.40
2023-02-11T06:29:54.012Z,24.33
2023-02-11T06:32:42.264Z,28.30
2023-02-11T06:35:11.454Z,22.87
2023-02-11T06:37:39.557Z,24.13
2023-02-11T06:40:07.172Z,20.03
2023-02-11T06:42:34.358Z,27.00
2023-02-11T06:45:03.097Z,27.80
2023-02-11T06:47:30.330Z,23.33
2023-02-11T06:49:57.624Z,23.17
2023-02-11T06:52:24.831Z,28.67
2023-02-11T06:54:52.096Z,27.77
2023-02-11T06:57:19.317Z,23.47
2023-02-11T06:59:46.606Z,19.60
2023-02-11T07:02:15.241Z,29.03
2023-02-11T07:04:42.558Z,26.33
2023-02-11T07:07:09.767Z,19.47
2023-02-11T07:09:37.037Z,23.27
2023-02-11T07:12:04.461Z,22.40
2023-02-11T07:14:31.700Z,23.17
2023-02-11T07:16:58.988Z,31.67
2023-02-11T07:19:27.567Z,23.57
2023-02-11T07:21:54.791Z,25.83
2023-02-11T07:24:22.001Z,29.50
2023-02-11T07:26:49.356Z,20.07
2023-02-11T07:29:16.653Z,18.27
2023-02-11T07:31:43.976Z,21.60
2023-02-11T07:34:11.379Z,18.33
2023-02-11T07:36:40.085Z,17.43
2023-02-11T07:39:07.361Z,15.17
2023-02-11T07:41:37.644Z,24.20
2023-02-11T07:44:05.598Z,25.17
2023-02-11T07:46:33.151Z,27.90
2023-02-11T07:49:00.810Z,24.13
2023-02-11T07:51:29.314Z,23.67
2023-02-11T07:53:58.688Z,23.33
2023-02-11T07:56:26.018Z,20.83
2023-02-11T07:58:53.724Z,23.30
2023-02-11T08:01:22.083Z,23.90
2023-02-11T08:03:49.364Z,26.33
2023-02-11T08:06:17.775Z,27.13
2023-02-11T08:08:45.056Z,21.77
2023-02-11T08:11:14.673Z,26.37
2023-02-11T08:13:42.292Z,25.63
2023-02-11T08:16:10.270Z,31.63
2023-02-11T08:18:37.555Z,27.60
2023-02-11T08:21:05.509Z,22.67
2023-02-11T08:23:32.872Z,31.07
2023-02-11T08:26:01.844Z,19.87
2023-02-11T08:28:30.564Z,18.77
2023-02-11T08:30:57.909Z,19.73
2023-02-11T08:33:25.278Z,16.63
2023-02-11T08:35:52.545Z,23.20
2023-02-11T08:38:19.748Z,17.10
2023-02-11T08:40:47.033Z,19.57
2023-02-11T08:43:14.353Z,18.33
2023-02-11T08:45:43.076Z,20.83
2023-02-11T08:48:10.354Z,19.53
2023-02-11T08:50:39.504Z,22.13
2023-02-11T08:53:06.789Z,24.57
2023-02-11T08:55:34.056Z,17.80
2023-02-11T08:58:01.271Z,18.10
2023-02-11T09:00:28.550Z,21.80
2023-02-11T09:02:57.196Z,18.77
2023-02-11T09:05:24.625Z,19.43
2023-02-11T09:07:51.878Z,14.07
2023-02-11T09:10:19.227Z,22.97
2023-02-11T09:12:46.435Z,16.47
2023-02-11T09:15:13.673Z,16.77
2023-02-11T09:17:40.967Z,19.57
2023-02-11T09:20:10.896Z,22.00
2023-02-11T09:22:38.248Z,20.90
2023-02-11T09:25:05.683Z,20.63
2023-02-11T09:27:32.886Z,17.37
2023-02-11T09:30:00.144Z,17.73
2023-02-11T09:32:27.414Z,18.93
2023-02-11T09:34:54.818Z,16.67
2023-02-11T09:37:23.423Z,13.97
2023-02-11T09:39:50.847Z,13.93
2023-02-11T09:42:35.415Z,15.67
2023-02-11T09:45:03.703Z,19.00
2023-02-11T09:47:32.778Z,16.30
2023-02-11T09:50:02.036Z,13.80
2023-02-11T09:52:38.633Z,13.40
2023-02-11T09:55:07.239Z,16.03
2023-02-11T09:57:35.980Z,15.53
2023-02-11T10:00:13.280Z,13.23
2023-02-11T10:02:48.640Z,19.43
2023-02-11T10:05:26.338Z,16.40
2023-02-11T10:07:58.934Z,14.17
2023-02-11T10:10:35.469Z,22.27
2023-02-11T10:13:16.811Z,15.93
2023-02-11T10:15:47.282Z,19.17
2023-02-11T10:18:32.433Z,17.53
2023-02-11T10:21:06.216Z,16.13
2023-02-11T10:23:37.539Z,22.23
2023-02-11T10:26:11.151Z,20.37
2023-02-11T10:28:39.036Z,22.47
2023-02-11T10:31:07.781Z,13.10
2023-02-11T10:33:37.005Z,18.50
2023-02-11T10:36:04.804Z,16.90
2023-02-11T10:38:32.364Z,22.63
2023-02-11T10:41:00.908Z,13.93
2023-02-11T10:43:31.079Z,15.80
2023-02-11T10:45:58.485Z,18.63
2023-02-11T10:48:43.192Z,18.53
2023-02-11T10:51:16.659Z,15.27
2023-02-11T10:53:44.258Z,14.23
2023-02-11T10:56:15.031Z,16.73
2023-02-11T10:58:44.640Z,18.73
2023-02-11T11:01:23.839Z,18.27
2023-02-11T11:03:52.833Z,15.90
2023-02-11T11:06:29.734Z,23.13
2023-02-11T11:08:57.050Z,20.53
2023-02-11T11:11:26.318Z,18.77
2023-02-11T11:13:58.101Z,17.10
2023-02-11T11:16:26.303Z,18.87
2023-02-11T11:18:54.410Z,17.87
2023-02-11T11:21:25.624Z,15.00
2023-02-11T11:23:57.059Z,20.60
2023-02-11T11:26:26.561Z,16.03
2023-02-11T11:28:59.375Z,20.43
2023-02-11T11:31:28.927Z,20.77
2023-02-11T11:33:58.444Z,19.43
2023-02-11T11:36:32.533Z,13.43
2023-02-11T11:39:01.445Z,16.30
2023-02-11T11:41:30.795Z,23.50
2023-02-11T11:43:59.163Z,18.13
2023-02-11T11:46:28.444Z,24.43
2023-02-11T11:48:57.790Z,20.20
2023-02-11T11:51:25.361Z,21.17
2023-02-11T11:53:56.979Z,23.47
2023-02-11T11:56:27.330Z,16.33
2023-02-11T11:58:56.208Z,21.37
2023-02-11T12:01:27.995Z,11.57
2023-02-11T12:04:06.637Z,23.33
2023-02-11T12:06:40.651Z,24.93
2023-02-11T12:09:13.555Z,22.83
2023-02-11T12:11:48.759Z,20.73
2023-02-11T12:14:24.882Z,19.83
2023-02-11T12:16:57.996Z,17.77
2023-02-11T12:19:36.126Z,16.27
2023-02-11T12:22:07.367Z,21.00
2023-02-11T12:24:41.980Z,21.37
2023-02-11T12:27:12.216Z,17.97
2023-02-11T12:29:46.386Z,20.20
2023-02-11T12:32:18.385Z,16.43
2023-02-11T12:35:01.321Z,22.07
2023-02-11T12:37:37.912Z,18.47
2023-02-11T12:40:13.234Z,18.23
2023-02-11T12:42:47.842Z,18.33
2023-02-11T12:45:22.554Z,18.63
2023-02-11T12:47:55.492Z,20.87
2023-02-11T12:50:25.640Z,14.00
2023-02-11T12:53:02.801Z,12.17
2023-02-11T12:55:32.850Z,13.70
2023-02-11T12:58:01.093Z,10.63
2023-02-11T13:00:34.264Z,15.33
2023-02-11T13:03:05.709Z,11.43
2023-02-11T13:05:35.118Z,15.60
2023-02-11T13:08:05.381Z,19.33
2023-02-11T13:10:34.622Z,14.87
2023-02-11T13:13:03.242Z,15.80
2023-02-11T13:15:32.129Z,16.47
2023-02-11T13:18:01.700Z,14.93
2023-02-11T13:20:35.591Z,12.23
2023-02-11T13:23:07.005Z,22.63
2023-02-11T13:25:36.584Z,19.67
2023-02-11T13:28:11.933Z,13.53
2023-02-11T13:30:40.827Z,13.43
2023-02-11T13:33:19.227Z,10.40
2023-02-11T13:35:48.427Z,10.20
2023-02-11T13:38:20.233Z,9.73
2023-02-11T13:40:58.997Z,10.20
2023-02-11T13:43:27.061Z,6.83
2023-02-11T13:45:59.093Z,8.90
2023-02-11T13:48:28.016Z,8.70
2023-02-11T13:50:56.860Z,7.07
2023-02-11T13:53:24.471Z,9.57
2023-02-11T13:55:52.478Z,8.53
2023-02-11T13:58:33.689Z,7.83
2023-02-11T14:01:02.429Z,7.83
2023-02-11T14:03:31.368Z,9.17
2023-02-11T14:06:11.308Z,7.07
2023-02-11T14:08:39.540Z,12.43
2023-02-11T14:11:07.835Z,8.70
2023-02-11T14:13:35.552Z,7.53
2023-02-11T14:16:11.604Z,8.93
2023-02-11T14:18:40.101Z,7.87
2023-02-11T14:21:14.968Z,8.53
2023-02-11T14:23:42.606Z,10.70
2023-02-11T14:26:23.209Z,10.60
2023-02-11T14:28:52.799Z,12.30
2023-02-11T14:31:23.510Z,12.83
2023-02-11T14:33:57.569Z,10.27
2023-02-11T14:36:45.754Z,7.97
2023-02-11T14:39:18.699Z,10.90
2023-02-11T14:41:47.434Z,12.43
2023-02-11T14:44:15.890Z,16.07
2023-02-11T14:46:46.822Z,10.33
2023-02-11T14:49:19.171Z,9.67
2023-02-11T14:51:46.815Z,11.40
2023-02-11T14:54:16.032Z,7.23
2023-02-11T14:56:43.515Z,13.37
2023-02-11T14:59:17.094Z,9.17
2023-02-11T15:01:46.828Z,12.13
2023-02-11T15:04:23.286Z,9.83
2023-02-11T15:06:50.637Z,11.80
2023-02-11T15:09:19.663Z,7.17
2023-02-11T15:11:48.431Z,9.43
2023-02-11T15:14:19.663Z,11.60
2023-02-11T15:16:48.452Z,7.23
2023-02-11T15:19:21.042Z,6.23
2023-02-11T15:21:48.576Z,8.17
2023-02-11T15:24:26.952Z,8.67
2023-02-11T15:26:57.755Z,8.63
2023-02-11T15:29:25.514Z,9.60
2023-02-11T15:32:05.269Z,9.77
2023-02-11T15:34:32.542Z,11.97
2023-02-11T15:36:59.847Z,10.70
2023-02-11T15:42:17.601Z,8.67
2023-02-11T15:44:45.301Z,9.30
2023-02-11T15:47:17.917Z,9.77
2023-02-11T15:49:46.690Z,6.90
2023-02-11T15:52:14.297Z,13.37
2023-02-11T15:54:46.724Z,10.80
2023-02-11T15:57:14.381Z,8.20
2023-02-11T15:59:46.301Z,9.07
2023-02-11T16:02:18.453Z,10.93
2023-02-11T16:04:50.273Z,10.77
2023-02-11T16:07:32.404Z,11.43
2023-02-11T16:10:00.053Z,9.67
2023-02-11T16:12:27.389Z,11.10
2023-02-11T16:14:54.735Z,7.07
2023-02-11T16:17:26.208Z,10.47
2023-02-11T16:19:54.384Z,9.77
2023-02-11T16:22:25.119Z,8.50
2023-02-11T16:24:53.996Z,9.90
2023-02-11T16:27:22.710Z,10.33
2023-02-11T16:29:50.470Z,7.33
2023-02-11T16:32:19.271Z,9.77
2023-02-11T16:34:48.416Z,5.73
2023-02-11T16:37:15.733Z,11.27
2023-02-11T16:39:43.331Z,9.17
2023-02-11T16:42:12.102Z,8.77
2023-02-11T16:44:45.200Z,13.47
2023-02-11T16:47:17.155Z,10.93
2023-02-11T16:49:44.476Z,11.37
2023-02-11T16:52:15.752Z,14.70
2023-02-11T16:58:31.224Z,9.40
2023-02-11T17:00:58.680Z,10.17
2023-02-11T17:03:29.840Z,9.67
2023-02-11T17:05:57.350Z,8.00
2023-02-11T17:08:26.026Z,6.73
2023-02-11T17:10:53.674Z,7.63
2023-02-11T17:15:57.319Z,7.67
2023-02-11T17:18:25.019Z,11.07
2023-02-11T17:20:52.215Z,9.93
2023-02-11T17:23:19.565Z,7.33
2023-02-11T17:25:55.178Z,13.63
2023-02-11T17:35:09.875Z,8.03
2023-02-11T17:37:37.180Z,7.60
2023-02-11T17:40:04.521Z,10.73
2023-02-11T17:42:33.447Z,13.73
2023-02-11T17:45:00.759Z,12.30
2023-02-11T17:47:46.718Z,9.33
2023-02-11T17:50:13.947Z,9.23
2023-02-11T17:52:41.237Z,7.40
2023-02-11T17:55:08.731Z,12.03
2023-02-11T18:04:27.771Z,9.03
2023-02-11T18:06:55.103Z,9.83
2023-02-11T18:09:22.381Z,8.03
2023-02-11T18:11:49.583Z,12.63
2023-02-11T18:14:16.952Z,6.50
2023-02-11T18:16:44.233Z,12.37
2023-02-11T18:19:12.037Z,9.77
2023-02-11T18:21:40.754Z,7.53
2023-02-11T18:24:08.052Z,10.60
2023-02-11T18:26:35.654Z,8.43
2023-02-11T18:29:03.342Z,8.60
2023-02-11T18:31:31.041Z,11.37
2023-02-11T18:33:58.711Z,9.60
2023-02-11T18:36:26.214Z,9.93
2023-02-11T18:38:55.122Z,10.40
2023-02-11T18:41:22.384Z,7.53
2023-02-11T18:43:49.750Z,9.40
2023-02-11T18:46:17.366Z,12.43
2023-02-11T18:48:44.760Z,11.60
2023-02-11T18:51:13.319Z,12.37
2023-02-11T18:53:40.641Z,11.20
2023-02-11T18:56:11.097Z,8.50
2023-02-11T18:58:38.989Z,11.53
2023-02-11T19:01:16.483Z,9.93
2023-02-11T19:03:44.570Z,12.20
2023-02-11T19:06:16.117Z,9.67
2023-02-11T19:08:43.987Z,16.27
2023-02-11T19:11:13.012Z,8.60
2023-02-11T19:13:40.262Z,6.73
2023-02-11T19:16:11.177Z,12.20
2023-02-11T19:18:38.906Z,14.03
2023-02-11T19:21:09.868Z,11.40
2023-02-11T19:23:37.645Z,8.57
2023-02-11T19:26:05.035Z,9.70
2023-02-11T19:28:34.121Z,10.13
2023-02-11T19:31:06.132Z,9.43
2023-02-11T19:33:33.517Z,11.77
2023-02-11T19:36:02.901Z,9.70
2023-02-11T19:38:30.251Z,9.13
2023-02-11T19:40:57.529Z,7.23
2023-02-11T19:43:24.814Z,8.60
2023-02-11T19:45:54.225Z,9.40
2023-02-11T19:48:21.962Z,8.20
2023-02-11T19:50:49.693Z,9.87
2023-02-11T19:53:18.690Z,9.20
2023-02-11T19:55:45.940Z,11.30
2023-02-11T19:58:13.396Z,10.47
2023-02-11T20:00:40.685Z,10.37
2023-02-11T20:03:09.505Z,7.30
2023-02-11T20:05:40.076Z,9.03
2023-02-11T20:08:07.421Z,10.93
2023-02-11T20:10:35.380Z,7.63
2023-02-11T20:13:02.713Z,8.50
2023-02-11T20:15:30.105Z,9.37
2023-02-11T20:17:57.343Z,9.03
2023-02-11T20:20:26.079Z,12.67
2023-02-11T20:22:53.363Z,12.63
2023-02-11T20:25:20.629Z,12.80
2023-02-11T20:27:47.874Z,12.07
2023-02-11T20:30:15.323Z,11.70
2023-02-11T20:32:42.524Z,12.07
2023-02-11T20:35:10.119Z,8.90
2023-02-11T20:37:38.803Z,10.60
2023-02-11T20:40:06.719Z,15.17
2023-02-11T20:42:33.927Z,12.50
2023-02-11T20:45:01.200Z,13.37
2023-02-11T20:47:28.485Z,12.87
2023-02-11T20:49:55.830Z,11.87
2023-02-11T20:52:23.053Z,11.23
2023-02-11T20:54:52.006Z,8.63
2023-02-11T20:57:19.324Z,9.37
2023-02-11T20:59:46.702Z,11.13
2023-02-11T21:02:14.122Z,12.07
2023-02-11T21:04:41.727Z,14.37
2023-02-11T21:07:09.347Z,9.50
2023-02-11T21:09:36.604Z,8.10
2023-02-11T21:12:08.165Z,12.40
2023-02-11T21:14:35.481Z,11.27
2023-02-11T21:20:19.251Z,11.57
2023-02-11T21:22:46.553Z,12.77
2023-02-11T21:25:13.829Z,10.43
2023-02-11T21:34:38.694Z,9.67
2023-02-11T21:37:05.966Z,15.07
2023-02-11T21:39:33.271Z,10.53
2023-02-11T21:42:00.604Z,15.20
2023-02-11T21:44:28.100Z,15.73
2023-02-11T21:46:55.353Z,10.83
2023-02-11T21:49:22.825Z,17.07
2023-02-11T21:51:51.492Z,9.90
2023-02-11T21:54:18.808Z,10.93
2023-02-11T21:56:46.134Z,12.93
2023-02-11T21:59:13.701Z,9.90
2023-02-11T22:01:41.889Z,9.60
2023-02-11T22:04:10.131Z,13.73
2023-02-11T22:06:37.370Z,9.60
2023-02-11T22:09:06.960Z,11.83
2023-02-11T22:11:34.235Z,11.90
2023-02-11T22:14:01.492Z,10.50
2023-02-11T22:16:28.946Z,13.53
2023-02-11T22:18:57.453Z,10.87
2023-02-11T22:21:24.916Z,12.20
2023-02-11T22:23:52.686Z,15.37
2023-02-11T22:26:22.414Z,12.10
2023-02-11T22:28:49.948Z,9.83
2023-02-11T22:31:18.382Z,12.87
2023-02-11T22:33:46.074Z,12.73
2023-02-11T22:36:16.284Z,11.60
2023-02-11T22:38:43.610Z,12.73
2023-02-11T22:41:11.334Z,11.47
2023-02-11T22:43:40.180Z,12.87
2023-02-11T22:46:08.133Z,9.33
2023-02-11T22:48:36.238Z,17.47
2023-02-11T22:51:07.467Z,11.10
2023-02-11T22:53:34.921Z,10.80
2023-02-11T22:56:02.874Z,11.10
2023-02-11T22:58:30.205Z,9.10
2023-02-11T23:00:58.884Z,11.57
2023-02-11T23:03:26.575Z,8.73
2023-02-11T23:05:54.175Z,15.60
2023-02-11T23:08:21.693Z,16.27
2023-02-11T23:10:48.940Z,10.97
2023-02-11T23:13:16.517Z,7.70
2023-02-11T23:15:44.271Z,13.57
2023-02-11T23:18:13.946Z,9.03
2023-02-11T23:20:43.507Z,10.60
2023-02-11T23:23:10.829Z,9.00
2023-02-11T23:25:41.704Z,14.00
2023-02-11T23:28:09.056Z,9.20
2023-02-11T23:30:36.271Z,8.47
2023-02-11T23:33:03.566Z,9.43
2023-02-11T23:35:32.264Z,8.93
2023-02-11T23:37:59.528Z,13.50
2023-02-11T23:40:26.864Z,13.37
2023-02-11T23:42:54.154Z,8.43
2023-02-11T23:45:21.380Z,10.67
2023-02-11T23:47:48.796Z,10.40
2023-02-11T23:50:16.198Z,9.07
2023-02-11T23:52:45.128Z,9.50
2023-02-11T23:55:12.376Z,8.80
2023-02-11T23:57:39.595Z,7.43
